Aérodrome :
LOGIN :

S'inscrire | Disclaimer

   EN    FR    IT 

 










Légende :    VFR   VFR Marginal   IFR   IFR Intensif   IFR Très Intensif
Visi : 
Plafond : 
>= 8 km
>= 3000ft
5 à 8 km
1000 à 3000 ft
1500m à 5 km
500 à 1000 ft
800 à 1500m
200 à 500 ft
< 800m
< 200 ft
Symboles :   Orages  Brouillard  Fortes neiges  Fortes précipitations  Vent > 20 kt
SIGMETs :   Divers  Orages  Givrage  Turbulence  Onde Orograph.  Cendres Volcan.






- Altitude de l'aérodrome : 458 ft


LFSI - St-Dizier

DERNIER METAR :
  • 270600Z AUTO 05005KT CAVOK 14/08 Q1033

METARs EXPIRÉS :
  • 270530Z AUTO 07003KT CAVOK 13/07 Q1033
  • 270500Z AUTO 03001KT CAVOK 11/08 Q1033
  • 270430Z AUTO 36001KT CAVOK 10/07 Q1032
  • 270400Z AUTO 01001KT CAVOK 10/07 Q1032
  • 270330Z AUTO 00000KT CAVOK 10/07 Q1032

TAF AMD TAF LFSI
Valide du 27 à 05h jusqu'au 28 à 03h UTC


270200Z 2705/2803 04005KT CAVOK



MET'MAP, la Météo Aéronautique d'un coup d'oeil ! - Copyright ORBIFLY Décembre 2007 - Disclaimer

ORBIFLY MET'MAP TEAM :

Programmation & Développement : Alexandra Zaïnal
Sur une idée originale de : Baudouin d'Aumeries
Assistance à la programmation : Marc-Olivier Méhu
Soutien technique & logistique : Manuel Goepfert

Contact : metmap@orbifly.com




SOURCES & CREDITS :

   NOAA